Time;durP1;ratioP1;P1;durP2;ratioP2;P2;SDS_P1;SDS_P2;PMS_P1;PMS_P2;Temp;Humidity;BMP_temperature;BMP_pressure;BME280_temperature;BME280_humidity;BME280_pressure;Samples;Min_cycle;Max_cycle;Signal;HPM_P1;HPM_P2
2023/04/14 00:01:05;;;;;;;4.40;2.03;;;8.20;99.90;;;;;;4975760;28;20030;-65
2023/04/14 00:03:31;;;;;;;5.53;2.05;;;8.20;99.90;;;;;;4973056;28;20038;-65
2023/04/14 00:05:57;;;;;;;2.92;1.85;;;8.20;99.90;;;;;;4972578;28;20358;-65
2023/04/14 00:08:22;;;;;;;2.28;1.63;;;8.20;99.90;;;;;;4969317;28;20152;-65
2023/04/14 00:10:48;;;;;;;7.63;2.35;;;8.20;99.90;;;;;;4952604;28;20111;-65
2023/04/14 00:13:14;;;;;;;4.40;2.83;;;8.20;99.90;;;;;;4974151;28;20796;-65
2023/04/14 00:15:41;;;;;;;7.35;2.10;;;8.20;99.90;;;;;;4968931;28;20762;-65
2023/04/14 00:18:08;;;;;;;10.00;2.85;;;8.20;99.90;;;;;;4971677;28;20055;-66
2023/04/14 00:20:34;;;;;;;2.60;2.05;;;8.10;99.90;;;;;;4970496;28;20088;-66
2023/04/14 00:22:59;;;;;;;4.85;2.40;;;8.10;99.90;;;;;;4975427;28;20065;-65
2023/04/14 00:25:25;;;;;;;5.28;2.85;;;8.10;99.90;;;;;;4980052;28;20378;-66
2023/04/14 00:27:51;;;;;;;5.25;2.58;;;8.10;99.90;;;;;;4974047;28;20040;-66
2023/04/14 00:30:17;;;;;;;5.63;2.88;;;8.10;99.90;;;;;;4958647;28;20035;-66
2023/04/14 00:32:43;;;;;;;4.28;2.67;;;8.20;99.90;;;;;;4962577;28;20038;-65
2023/04/14 00:35:09;;;;;;;3.40;2.10;;;8.20;99.90;;;;;;4975244;28;20043;-65
2023/04/14 00:37:35;;;;;;;3.97;2.70;;;8.20;99.90;;;;;;4957188;28;20046;-65
2023/04/14 00:40:00;;;;;;;3.40;2.20;;;8.20;99.90;;;;;;4965883;28;20034;-64
2023/04/14 00:42:26;;;;;;;2.28;1.60;;;8.30;99.90;;;;;;4959448;28;20067;-65
2023/04/14 00:44:52;;;;;;;3.83;1.40;;;8.30;99.90;;;;;;4965310;28;20035;-66
2023/04/14 00:47:18;;;;;;;4.10;2.17;;;8.40;99.90;;;;;;4977145;28;20038;-65
2023/04/14 00:49:44;;;;;;;8.43;3.03;;;8.40;99.90;;;;;;4964146;28;20030;-66
2023/04/14 00:52:11;;;;;;;5.85;2.85;;;8.40;99.90;;;;;;4958832;28;20030;-65
2023/04/14 00:54:36;;;;;;;4.72;2.67;;;8.50;99.90;;;;;;4965415;28;20026;-65
2023/04/14 00:57:03;;;;;;;3.70;2.13;;;8.50;99.90;;;;;;4975133;28;20126;-65
2023/04/14 00:59:30;;;;;;;4.40;2.47;;;8.50;99.90;;;;;;4977276;28;20081;-65
2023/04/14 01:01:56;;;;;;;4.13;2.30;;;8.50;99.90;;;;;;4964614;28;20130;-65
2023/04/14 01:04:22;;;;;;;3.65;2.53;;;8.50;99.90;;;;;;4959243;28;20611;-65
2023/04/14 01:06:48;;;;;;;5.55;2.72;;;8.50;99.90;;;;;;4976181;28;20026;-65
2023/04/14 01:09:15;;;;;;;7.13;3.13;;;8.60;99.90;;;;;;4958301;28;20052;-65
2023/04/14 01:12:02;;;;;;;5.47;3.42;;;8.60;99.90;;;;;;4964215;28;20110;-65
2023/04/14 01:14:31;;;;;;;4.25;2.95;;;8.60;99.90;;;;;;4965076;28;20404;-65
2023/04/14 01:17:06;;;;;;;4.47;2.45;;;8.70;99.90;;;;;;4964133;28;20143;-65
2023/04/14 01:19:53;;;;;;;4.68;2.85;;;8.70;99.90;;;;;;4960454;28;20045;-65
2023/04/14 01:22:21;;;;;;;4.70;3.15;;;8.70;99.90;;;;;;4974706;28;20035;-65
2023/04/14 01:25:09;;;;;;;9.80;3.55;;;8.80;99.90;;;;;;4976699;28;20105;-65
2023/04/14 01:27:53;;;;;;;5.03;2.40;;;8.80;99.90;;;;;;4975878;28;20045;-65
2023/04/14 01:30:42;;;;;;;4.88;2.92;;;8.80;99.90;;;;;;4953801;28;20035;-65
2023/04/14 01:33:14;;;;;;;5.32;2.97;;;8.80;99.90;;;;;;4962959;28;20031;-65
2023/04/14 01:35:48;;;;;;;2.97;2.58;;;8.80;99.90;;;;;;4975162;28;20038;-65
2023/04/14 01:38:22;;;;;;;3.92;2.85;;;8.80;99.90;;;;;;4974702;28;20037;-65
2023/04/14 01:40:51;;;;;;;4.13;2.90;;;8.80;99.90;;;;;;4974236;28;20039;-66
2023/04/14 01:43:24;;;;;;;4.40;2.70;;;8.90;99.90;;;;;;4975425;28;20434;-65
2023/04/14 01:45:52;;;;;;;3.05;2.30;;;8.90;99.90;;;;;;4964819;28;20037;-65
2023/04/14 01:48:18;;;;;;;3.42;2.35;;;8.90;99.90;;;;;;4958541;28;20031;-65
2023/04/14 01:50:46;;;;;;;3.38;2.00;;;8.90;99.90;;;;;;4965228;28;20549;-65
2023/04/14 01:53:15;;;;;;;4.82;2.40;;;8.80;99.90;;;;;;4959115;28;20915;-65
2023/04/14 01:55:43;;;;;;;2.90;2.10;;;8.70;99.90;;;;;;4965477;28;20836;-66
2023/04/14 01:58:11;;;;;;;3.78;2.47;;;8.60;99.90;;;;;;4955636;28;20747;-65
2023/04/14 02:00:40;;;;;;;5.50;2.95;;;8.70;99.90;;;;;;4965313;28;20533;-66
2023/04/14 02:03:06;;;;;;;6.40;3.13;;;8.60;99.90;;;;;;4978030;28;20034;-66
2023/04/14 02:05:38;;;;;;;5.82;2.80;;;8.60;99.90;;;;;;4975332;28;20041;-65
2023/04/14 02:08:11;;;;;;;7.70;2.70;;;8.60;99.90;;;;;;4974933;28;20039;-65
2023/04/14 02:10:43;;;;;;;4.43;2.97;;;8.60;99.90;;;;;;4959524;28;20063;-65
2023/04/14 02:13:10;;;;;;;5.72;3.10;;;8.60;99.90;;;;;;4976105;28;20033;-65
2023/04/14 02:15:39;;;;;;;5.22;3.03;;;8.60;99.90;;;;;;4952680;28;20034;-65
2023/04/14 02:18:06;;;;;;;6.25;3.25;;;8.60;99.90;;;;;;4971376;28;20130;-65
2023/04/14 02:20:33;;;;;;;7.10;3.25;;;8.60;99.90;;;;;;4955222;28;20105;-65
2023/04/14 02:22:59;;;;;;;4.20;2.83;;;8.60;99.90;;;;;;4955549;28;20034;-65
2023/04/14 02:25:31;;;;;;;6.63;3.13;;;8.60;99.90;;;;;;4954969;28;20035;-66
2023/04/14 02:28:05;;;;;;;6.32;3.22;;;8.60;99.90;;;;;;4959052;28;20055;-65
2023/04/14 02:30:43;;;;;;;4.20;2.78;;;8.60;99.90;;;;;;4959538;28;20137;-65
2023/04/14 02:33:16;;;;;;;6.53;3.10;;;8.60;99.90;;;;;;4960658;28;20044;-65
2023/04/14 02:35:45;;;;;;;7.65;3.00;;;8.60;99.90;;;;;;4974275;28;20042;-66
2023/04/14 02:38:36;;;;;;;5.00;3.30;;;8.70;99.90;;;;;;4974661;28;20050;-66
2023/04/14 02:41:20;;;;;;;4.50;3.38;;;8.70;99.90;;;;;;4962213;28;20660;-65
2023/04/14 02:43:51;;;;;;;7.07;3.92;;;8.80;99.90;;;;;;4974693;28;20608;-66
2023/04/14 02:46:21;;;;;;;4.85;2.90;;;8.80;99.90;;;;;;4964232;28;20041;-66
2023/04/14 02:48:47;;;;;;;5.72;3.72;;;8.80;99.90;;;;;;4957909;28;20109;-65
2023/04/14 02:51:16;;;;;;;5.88;3.17;;;8.80;99.90;;;;;;4956813;28;20038;-65
2023/04/14 02:53:43;;;;;;;5.10;2.95;;;8.80;99.90;;;;;;4964558;28;20443;-65
2023/04/14 02:56:17;;;;;;;4.72;3.10;;;8.80;99.90;;;;;;4953726;28;20586;-65
2023/04/14 02:58:46;;;;;;;4.03;2.67;;;8.80;99.90;;;;;;4964337;28;20069;-65
2023/04/14 03:01:14;;;;;;;4.68;2.53;;;8.80;99.90;;;;;;4959372;28;20117;-66
2023/04/14 03:03:40;;;;;;;4.38;3.05;;;8.80;99.90;;;;;;4964258;28;20052;-65
2023/04/14 03:06:14;;;;;;;3.65;3.13;;;8.80;99.90;;;;;;4954339;28;20034;-65
2023/04/14 03:08:42;;;;;;;5.00;3.05;;;8.80;99.90;;;;;;4958213;28;20034;-65
2023/04/14 03:11:10;;;;;;;4.97;2.67;;;8.80;99.90;;;;;;4953443;28;20173;-65
2023/04/14 03:13:38;;;;;;;2.97;2.60;;;8.80;99.90;;;;;;4975197;28;20098;-65
2023/04/14 03:16:06;;;;;;;4.32;2.30;;;8.80;99.90;;;;;;4956532;28;20042;-65
2023/04/14 03:18:34;;;;;;;3.10;2.30;;;8.80;99.90;;;;;;4961160;28;20513;-65
2023/04/14 03:21:01;;;;;;;6.32;2.35;;;8.80;99.90;;;;;;4960966;28;20117;-65
2023/04/14 03:23:30;;;;;;;4.15;2.38;;;8.80;99.90;;;;;;4961528;28;20030;-65
2023/04/14 03:26:02;;;;;;;3.05;2.20;;;8.80;99.90;;;;;;4959014;28;20170;-65
2023/04/14 03:28:32;;;;;;;3.35;2.20;;;8.80;99.90;;;;;;4958838;28;20399;-65
2023/04/14 03:31:02;;;;;;;3.00;2.08;;;8.80;99.90;;;;;;4973257;28;20038;-65
2023/04/14 03:33:36;;;;;;;4.53;2.45;;;8.80;99.90;;;;;;4960897;28;20142;-65
2023/04/14 03:36:03;;;;;;;3.90;2.40;;;8.80;99.90;;;;;;4958088;28;20077;-65
2023/04/14 03:38:32;;;;;;;4.00;2.65;;;8.80;99.90;;;;;;4956344;28;20042;-65
2023/04/14 03:41:03;;;;;;;4.40;2.60;;;8.80;99.90;;;;;;4959694;28;20140;-65
2023/04/14 03:43:32;;;;;;;3.90;2.20;;;8.80;99.90;;;;;;4977191;28;20035;-65
2023/04/14 03:46:04;;;;;;;3.50;2.17;;;8.80;99.90;;;;;;4947672;28;20034;-66
2023/04/14 03:48:33;;;;;;;2.65;2.22;;;8.80;99.90;;;;;;4957363;28;20026;-65
2023/04/14 03:51:01;;;;;;;3.75;2.60;;;8.80;99.90;;;;;;4955484;28;20097;-65
2023/04/14 03:53:29;;;;;;;4.72;2.60;;;8.80;99.90;;;;;;4962272;28;20041;-65
2023/04/14 03:55:58;;;;;;;4.07;2.25;;;8.80;99.90;;;;;;4961557;28;20034;-65
2023/04/14 03:58:25;;;;;;;4.20;2.53;;;8.80;99.90;;;;;;4958149;28;20839;-65
2023/04/14 04:00:53;;;;;;;2.85;2.30;;;8.80;99.90;;;;;;4979003;28;20034;-65
2023/04/14 04:03:21;;;;;;;3.97;2.40;;;8.80;99.90;;;;;;4980008;28;20868;-66
2023/04/14 04:05:47;;;;;;;4.15;2.33;;;8.80;99.90;;;;;;4977774;28;20066;-65
2023/04/14 04:08:14;;;;;;;3.38;2.28;;;8.80;99.90;;;;;;4954565;28;20531;-65
2023/04/14 04:10:42;;;;;;;2.63;2.35;;;8.80;99.90;;;;;;4965277;28;20030;-65
2023/04/14 04:13:14;;;;;;;4.05;2.55;;;8.80;99.90;;;;;;4956259;28;20035;-65
2023/04/14 04:15:41;;;;;;;4.55;2.75;;;8.80;99.90;;;;;;4957744;28;20037;-66
2023/04/14 04:18:13;;;;;;;3.63;2.38;;;8.80;99.90;;;;;;4960631;28;20034;-65
2023/04/14 04:20:40;;;;;;;4.55;2.47;;;8.80;99.90;;;;;;4966689;28;20034;-66
2023/04/14 04:23:08;;;;;;;4.50;2.55;;;8.80;99.90;;;;;;4959074;28;20034;-65
2023/04/14 04:25:36;;;;;;;2.55;2.20;;;8.80;99.90;;;;;;4975758;28;20145;-66
2023/04/14 04:28:10;;;;;;;1.95;1.73;;;8.80;99.90;;;;;;4964686;28;20031;-66
2023/04/14 04:30:39;;;;;;;3.38;1.80;;;8.80;99.90;;;;;;4965545;28;20034;-66
2023/04/14 04:33:06;;;;;;;4.00;2.03;;;8.80;99.90;;;;;;4957589;28;20545;-65
2023/04/14 04:35:34;;;;;;;5.03;2.67;;;8.90;99.90;;;;;;4957503;28;20038;-65
2023/04/14 04:38:04;;;;;;;4.15;2.33;;;8.90;99.90;;;;;;4962990;28;20041;-65
2023/04/14 04:40:37;;;;;;;4.93;2.60;;;8.90;99.90;;;;;;4963145;28;20066;-65
2023/04/14 04:43:06;;;;;;;4.38;2.40;;;9.00;99.90;;;;;;4956728;28;20435;-65
2023/04/14 04:46:11;;;;;;;3.75;2.63;;;9.00;99.90;;;;;;4957535;28;20577;-66
2023/04/14 04:48:37;;;;;;;3.50;1.92;;;9.00;99.90;;;;;;4971206;28;20041;-65
2023/04/14 04:51:04;;;;;;;3.80;1.90;;;9.00;99.90;;;;;;4964482;28;20034;-65
2023/04/14 04:53:30;;;;;;;3.65;2.10;;;9.00;99.90;;;;;;4965688;28;20035;-66
2023/04/14 04:55:57;;;;;;;2.58;1.92;;;9.00;99.90;;;;;;4961150;28;20402;-65
2023/04/14 04:58:22;;;;;;;2.58;1.83;;;9.00;99.90;;;;;;4979204;28;20101;-65
2023/04/14 05:00:48;;;;;;;3.80;1.90;;;9.10;99.90;;;;;;4980088;28;20080;-66
2023/04/14 05:03:14;;;;;;;2.80;1.85;;;9.10;99.90;;;;;;4977417;28;20042;-65
2023/04/14 05:05:39;;;;;;;2.78;1.83;;;9.10;99.90;;;;;;4975425;28;20026;-65
2023/04/14 05:08:06;;;;;;;1.98;1.83;;;9.10;99.90;;;;;;4976182;28;20509;-65
2023/04/14 05:10:35;;;;;;;4.22;2.13;;;9.10;99.90;;;;;;4977520;28;20039;-64
2023/04/14 05:13:01;;;;;;;2.88;2.00;;;9.20;99.90;;;;;;4977904;28;20035;-65
2023/04/14 05:15:27;;;;;;;3.63;2.13;;;9.20;99.90;;;;;;4977745;28;20803;-66
2023/04/14 05:17:52;;;;;;;2.42;1.80;;;9.20;99.90;;;;;;4974003;28;20038;-65
2023/04/14 05:20:18;;;;;;;4.78;2.00;;;9.20;99.90;;;;;;4973764;28;20053;-65
2023/04/14 05:22:44;;;;;;;2.97;2.38;;;9.30;99.90;;;;;;4976579;28;20038;-65
2023/04/14 05:25:10;;;;;;;2.38;1.63;;;9.30;99.90;;;;;;4974697;28;20030;-65
2023/04/14 05:27:36;;;;;;;5.05;2.15;;;9.30;99.90;;;;;;4977977;28;20049;-66
2023/04/14 05:30:02;;;;;;;2.95;2.08;;;9.30;99.90;;;;;;4980482;28;20121;-64
2023/04/14 05:32:28;;;;;;;2.25;1.73;;;9.40;99.90;;;;;;4976099;28;20045;-65
2023/04/14 05:34:54;;;;;;;3.22;2.28;;;9.40;99.90;;;;;;4976185;28;20038;-66
2023/04/14 05:37:19;;;;;;;5.70;2.30;;;9.40;99.90;;;;;;4974282;28;20040;-65
2023/04/14 05:39:46;;;;;;;3.80;2.42;;;9.50;99.90;;;;;;4979461;28;20045;-65
2023/04/14 05:42:11;;;;;;;4.85;2.05;;;9.50;99.90;;;;;;4979683;28;20045;-66
2023/04/14 05:44:37;;;;;;;5.32;1.92;;;9.50;99.90;;;;;;4976021;28;20039;-65
2023/04/14 05:47:03;;;;;;;2.38;1.77;;;9.50;99.90;;;;;;4977271;28;20116;-66
2023/04/14 05:49:29;;;;;;;3.72;2.05;;;9.60;99.90;;;;;;4974998;28;20507;-65
2023/04/14 05:51:55;;;;;;;3.78;2.10;;;9.60;99.90;;;;;;4974633;28;20027;-65
2023/04/14 05:54:21;;;;;;;3.92;1.90;;;9.60;99.90;;;;;;4977884;28;20110;-65
2023/04/14 05:56:46;;;;;;;3.55;1.83;;;9.60;99.90;;;;;;4976808;28;20073;-65
2023/04/14 05:59:12;;;;;;;6.15;2.28;;;9.70;99.90;;;;;;4975799;28;20121;-65
2023/04/14 06:01:38;;;;;;;3.60;2.50;;;9.70;99.90;;;;;;4975171;28;20125;-66
2023/04/14 06:04:04;;;;;;;2.83;2.20;;;9.70;99.90;;;;;;4971005;28;20118;-65
2023/04/14 06:06:31;;;;;;;5.97;2.22;;;9.70;99.90;;;;;;4977408;28;20099;-65
2023/04/14 06:08:57;;;;;;;2.60;2.03;;;9.80;99.90;;;;;;4971721;28;20049;-65
2023/04/14 06:11:22;;;;;;;2.42;1.92;;;9.80;99.90;;;;;;4976397;28;20486;-65
2023/04/14 06:13:49;;;;;;;2.92;1.92;;;9.90;99.90;;;;;;4975415;28;20379;-65
2023/04/14 06:16:14;;;;;;;2.83;1.83;;;10.00;99.90;;;;;;4956752;28;20708;-64
2023/04/14 06:18:40;;;;;;;2.53;1.85;;;10.00;99.90;;;;;;4978909;28;20030;-65
2023/04/14 06:21:06;;;;;;;2.72;2.05;;;10.00;99.90;;;;;;4968721;28;20569;-66
2023/04/14 06:23:32;;;;;;;5.75;2.00;;;10.10;99.90;;;;;;4979436;28;20046;-66
2023/04/14 06:25:58;;;;;;;2.33;1.80;;;10.10;99.90;;;;;;4975140;28;20121;-65
2023/04/14 06:28:25;;;;;;;4.28;1.90;;;10.10;99.90;;;;;;4977993;28;20061;-65
2023/04/14 06:30:51;;;;;;;4.28;1.92;;;10.10;99.90;;;;;;4971345;28;20056;-65
2023/04/14 06:33:17;;;;;;;3.17;1.95;;;10.20;99.90;;;;;;4969720;28;20030;-66
2023/04/14 06:35:43;;;;;;;5.20;2.30;;;10.20;99.90;;;;;;4974568;28;20499;-66
2023/04/14 06:38:09;;;;;;;2.95;2.10;;;10.20;99.90;;;;;;4968705;28;20122;-65
2023/04/14 06:40:35;;;;;;;4.72;2.25;;;10.20;99.90;;;;;;4970060;28;20098;-65
2023/04/14 06:43:01;;;;;;;3.30;2.25;;;10.30;99.90;;;;;;4974178;28;20046;-66
2023/04/14 06:45:27;;;;;;;3.80;2.03;;;10.30;99.90;;;;;;4954983;28;20041;-65
2023/04/14 06:47:53;;;;;;;2.67;1.90;;;10.30;99.90;;;;;;4966310;28;20026;-66
2023/04/14 06:50:19;;;;;;;4.93;2.40;;;10.30;99.90;;;;;;4967992;28;20039;-66
2023/04/14 06:52:45;;;;;;;2.05;1.73;;;10.30;99.90;;;;;;4978510;28;20037;-68
2023/04/14 06:55:11;;;;;;;2.42;1.80;;;10.30;99.90;;;;;;4972710;28;20782;-66
2023/04/14 06:57:36;;;;;;;2.65;2.13;;;10.40;99.90;;;;;;4975339;28;20127;-66
2023/04/14 07:00:05;;;;;;;4.10;1.95;;;10.40;99.90;;;;;;4973426;28;20077;-66
2023/04/14 07:02:31;;;;;;;2.97;2.30;;;10.40;99.90;;;;;;4979243;28;20421;-66
2023/04/14 07:04:57;;;;;;;3.58;2.35;;;10.40;99.90;;;;;;4966483;28;20043;-66
2023/04/14 07:07:23;;;;;;;4.03;2.40;;;10.50;99.90;;;;;;4971809;28;20112;-66
2023/04/14 07:09:49;;;;;;;4.18;2.58;;;10.50;99.90;;;;;;4969918;28;20490;-65
2023/04/14 07:12:16;;;;;;;2.88;2.03;;;10.50;99.90;;;;;;4971156;28;20042;-66
2023/04/14 07:14:49;;;;;;;3.05;2.30;;;10.50;99.90;;;;;;4970597;28;20101;-66
2023/04/14 07:17:15;;;;;;;4.75;2.22;;;10.50;99.90;;;;;;4973565;28;20091;-65
2023/04/14 07:19:41;;;;;;;2.80;2.33;;;10.50;99.90;;;;;;4975537;28;20034;-66
2023/04/14 07:22:07;;;;;;;3.60;2.30;;;10.50;99.90;;;;;;4976892;28;20035;-66
2023/04/14 07:24:33;;;;;;;7.45;2.95;;;10.60;99.90;;;;;;4975715;28;20038;-65
2023/04/14 07:26:59;;;;;;;4.15;2.55;;;10.60;99.90;;;;;;4975600;28;20560;-65
2023/04/14 07:29:27;;;;;;;6.28;3.00;;;10.60;99.90;;;;;;4973147;28;20494;-66
2023/04/14 07:31:53;;;;;;;3.80;2.45;;;10.60;99.90;;;;;;4976451;28;20489;-66
2023/04/14 07:34:20;;;;;;;4.93;2.53;;;10.60;99.90;;;;;;4978002;28;20026;-66
2023/04/14 07:36:45;;;;;;;6.30;2.70;;;10.70;99.90;;;;;;4973778;28;20386;-66
2023/04/14 07:39:11;;;;;;;3.85;2.42;;;10.70;99.90;;;;;;4972736;28;20038;-66
2023/04/14 07:41:37;;;;;;;5.85;2.85;;;10.80;99.90;;;;;;4974702;28;20035;-65
2023/04/14 07:44:03;;;;;;;4.82;2.67;;;10.80;99.90;;;;;;4974361;28;20065;-66
2023/04/14 07:46:29;;;;;;;3.38;2.65;;;10.90;99.90;;;;;;4972477;28;20157;-66
2023/04/14 07:48:54;;;;;;;3.42;2.22;;;10.90;99.90;;;;;;4971552;28;20034;-65
2023/04/14 07:51:20;;;;;;;5.95;3.50;;;11.00;99.90;;;;;;4978596;28;20041;-66
2023/04/14 07:53:46;;;;;;;4.45;2.60;;;11.00;99.90;;;;;;4970167;28;20037;-66
2023/04/14 07:56:12;;;;;;;7.30;3.15;;;11.00;99.90;;;;;;4970940;28;20030;-65
2023/04/14 07:58:38;;;;;;;5.68;2.95;;;11.00;99.90;;;;;;4969977;28;20061;-66
2023/04/14 08:01:04;;;;;;;5.25;2.65;;;11.10;99.90;;;;;;4970213;28;20099;-65
2023/04/14 08:03:29;;;;;;;3.58;2.63;;;11.10;99.90;;;;;;4974207;28;20069;-65
2023/04/14 08:05:56;;;;;;;3.53;2.80;;;11.10;99.90;;;;;;4973256;28;20460;-66
2023/04/14 08:08:22;;;;;;;5.65;2.70;;;11.10;99.90;;;;;;4974196;28;20120;-66
2023/04/14 08:10:48;;;;;;;4.93;2.72;;;11.20;99.90;;;;;;4972646;28;20077;-65
2023/04/14 08:13:14;;;;;;;5.22;2.97;;;11.20;99.90;;;;;;4966687;28;20026;-64
2023/04/14 08:15:40;;;;;;;5.30;2.70;;;11.30;99.90;;;;;;4977259;28;20146;-65
2023/04/14 08:18:06;;;;;;;4.10;3.08;;;11.30;99.90;;;;;;4973063;28;20081;-66
2023/04/14 08:20:32;;;;;;;3.45;2.60;;;11.40;99.90;;;;;;4973452;28;20133;-66
2023/04/14 08:22:58;;;;;;;5.47;3.17;;;11.40;99.90;;;;;;4956783;28;20137;-65
2023/04/14 08:25:24;;;;;;;5.13;3.03;;;11.50;99.90;;;;;;4976384;28;20045;-66
2023/04/14 08:27:50;;;;;;;6.82;4.07;;;11.50;99.90;;;;;;4958300;28;20124;-65
2023/04/14 08:30:16;;;;;;;7.13;3.10;;;11.60;99.90;;;;;;4969789;28;20037;-65
2023/04/14 08:32:42;;;;;;;6.82;3.65;;;11.60;99.90;;;;;;4973838;28;20210;-66
2023/04/14 08:35:08;;;;;;;7.35;4.78;;;11.60;99.90;;;;;;4975081;28;20034;-66
2023/04/14 08:37:34;;;;;;;9.55;5.97;;;11.70;99.90;;;;;;4969388;28;20424;-66
2023/04/14 08:40:00;;;;;;;5.78;4.07;;;11.80;99.90;;;;;;4972006;28;20038;-66
2023/04/14 08:42:26;;;;;;;6.95;4.00;;;11.80;99.90;;;;;;4971729;28;20039;-66
2023/04/14 08:44:52;;;;;;;7.40;3.70;;;11.90;99.90;;;;;;4964873;28;20108;-66
2023/04/14 08:47:20;;;;;;;7.28;4.50;;;12.00;99.90;;;;;;4974710;28;20065;-66
2023/04/14 08:49:59;;;;;;;7.90;4.38;;;12.00;99.90;;;;;;4980820;28;20026;-66
2023/04/14 08:52:27;;;;;;;11.02;6.47;;;12.10;99.90;;;;;;4976223;28;20062;-66
2023/04/14 08:54:55;;;;;;;7.07;4.75;;;12.10;99.90;;;;;;4974173;28;20034;-66
2023/04/14 08:57:23;;;;;;;9.13;4.28;;;12.20;99.90;;;;;;4975672;28;20045;-66
2023/04/14 08:59:49;;;;;;;7.88;4.28;;;12.20;99.90;;;;;;4975631;28;20038;-66
2023/04/14 09:02:17;;;;;;;7.95;4.32;;;12.20;99.90;;;;;;4977802;28;20046;-66
2023/04/14 09:04:44;;;;;;;6.55;3.75;;;12.20;99.90;;;;;;4975531;28;20145;-66
2023/04/14 09:07:11;;;;;;;7.85;3.75;;;12.30;99.90;;;;;;4978938;28;20031;-66
2023/04/14 09:09:37;;;;;;;7.60;3.55;;;12.30;99.90;;;;;;4978338;28;20443;-65
2023/04/14 09:12:03;;;;;;;5.15;3.10;;;12.20;99.90;;;;;;4979698;28;20039;-65
2023/04/14 09:14:29;;;;;;;5.15;3.28;;;12.20;99.90;;;;;;4977514;28;20321;-65
2023/04/14 09:16:56;;;;;;;7.55;4.53;;;12.20;99.90;;;;;;4977441;28;20121;-65
2023/04/14 09:19:23;;;;;;;7.28;4.00;;;12.30;99.90;;;;;;4977508;28;20045;-65
2023/04/14 09:21:49;;;;;;;5.15;2.88;;;12.40;99.90;;;;;;4975285;28;20446;-66
2023/04/14 09:24:22;;;;;;;5.32;2.58;;;12.30;99.90;;;;;;4976761;28;20441;-66
2023/04/14 09:26:51;;;;;;;4.68;2.40;;;12.20;99.90;;;;;;4974999;28;20049;-66
2023/04/14 09:29:17;;;;;;;4.70;2.55;;;12.20;99.90;;;;;;4978458;28;20049;-66
2023/04/14 09:31:46;;;;;;;2.85;2.22;;;12.10;99.90;;;;;;4971900;28;20034;-66
2023/04/14 09:34:20;;;;;;;4.38;2.38;;;12.20;99.90;;;;;;4978269;28;20049;-64
2023/04/14 09:37:04;;;;;;;4.00;2.58;;;12.20;99.90;;;;;;4976233;28;20041;-66
2023/04/14 09:39:31;;;;;;;3.00;2.40;;;12.20;99.90;;;;;;4977497;28;20038;-66
2023/04/14 09:41:57;;;;;;;1.77;1.65;;;12.20;99.90;;;;;;4979552;28;20034;-66
2023/04/14 09:44:23;;;;;;;3.47;2.20;;;12.30;99.90;;;;;;4975843;28;20049;-65
2023/04/14 09:47:18;;;;;;;2.45;2.13;;;12.30;99.90;;;;;;4977634;28;20035;-66
2023/04/14 09:49:58;;;;;;;3.03;2.33;;;12.30;99.90;;;;;;4971476;28;20467;-66
2023/04/14 09:52:43;;;;;;;2.47;2.20;;;12.30;99.90;;;;;;4974885;28;20030;-65
2023/04/14 09:55:14;;;;;;;3.90;2.20;;;12.40;99.90;;;;;;4970261;28;20084;-66
2023/04/14 09:57:42;;;;;;;3.17;2.10;;;12.30;99.90;;;;;;4971682;28;20034;-66
2023/04/14 10:00:21;;;;;;;4.72;2.40;;;12.30;99.90;;;;;;4975325;28;20070;-65
2023/04/14 10:02:57;;;;;;;5.55;1.83;;;12.30;99.90;;;;;;4969018;28;20599;-66
2023/04/14 10:05:32;;;;;;;3.42;1.90;;;12.30;99.90;;;;;;4968646;28;20035;-66
2023/04/14 10:08:03;;;;;;;2.67;2.13;;;12.30;99.90;;;;;;4975014;28;20704;-66
2023/04/14 10:10:29;;;;;;;2.22;2.00;;;12.40;99.90;;;;;;4975251;28;20027;-66
2023/04/14 10:12:55;;;;;;;3.65;2.47;;;12.40;99.90;;;;;;4976657;28;20808;-66
2023/04/14 10:15:21;;;;;;;9.75;4.72;;;12.40;99.90;;;;;;4970461;28;20101;-66
2023/04/14 10:17:46;;;;;;;3.67;2.38;;;12.40;99.90;;;;;;4973907;28;20034;-66
2023/04/14 10:20:13;;;;;;;4.93;2.38;;;12.30;99.90;;;;;;4966238;28;20477;-66
2023/04/14 10:22:40;;;;;;;4.30;1.88;;;12.20;99.90;;;;;;4977743;28;20057;-66
2023/04/14 10:25:08;;;;;;;3.67;2.25;;;12.20;99.90;;;;;;4971328;28;20034;-66
2023/04/14 10:27:34;;;;;;;2.38;1.80;;;12.20;99.90;;;;;;4971077;28;20109;-66
2023/04/14 10:30:01;;;;;;;4.63;2.45;;;12.20;99.90;;;;;;4976645;28;20030;-65
2023/04/14 10:32:31;;;;;;;2.50;2.00;;;12.10;99.90;;;;;;4976303;28;20124;-66
2023/04/14 10:34:57;;;;;;;4.53;2.35;;;12.10;99.90;;;;;;4975284;28;20081;-66
2023/04/14 10:37:23;;;;;;;2.83;1.92;;;12.10;99.90;;;;;;4968057;28;20031;-66
2023/04/14 10:39:58;;;;;;;2.10;1.80;;;12.10;99.90;;;;;;4960536;28;20041;-66
2023/04/14 10:42:25;;;;;;;1.92;1.77;;;12.10;99.90;;;;;;4977475;28;20039;-66
2023/04/14 10:45:04;;;;;;;2.53;2.08;;;12.10;99.90;;;;;;4977795;28;20121;-65
2023/04/14 10:47:31;;;;;;;2.22;2.03;;;12.10;99.90;;;;;;4982944;28;20033;-66
2023/04/14 10:49:57;;;;;;;2.85;2.03;;;12.10;99.90;;;;;;4975623;28;20546;-66
2023/04/14 10:52:24;;;;;;;2.72;1.88;;;12.10;99.90;;;;;;4978004;28;20038;-64
2023/04/14 10:55:06;;;;;;;3.30;2.55;;;12.10;99.90;;;;;;4977947;28;20038;-67
2023/04/14 10:57:42;;;;;;;2.38;1.98;;;12.20;99.90;;;;;;4973453;28;20169;-65
2023/04/14 11:00:24;;;;;;;4.15;2.00;;;12.20;99.90;;;;;;4968929;28;20153;-66
2023/04/14 11:03:06;;;;;;;3.22;2.25;;;12.30;99.90;;;;;;4972887;28;20088;-66
2023/04/14 11:05:33;;;;;;;3.15;1.80;;;12.30;99.90;;;;;;4976488;28;20104;-66
2023/04/14 11:08:00;;;;;;;4.00;2.22;;;12.30;99.90;;;;;;4971629;28;20114;-66
2023/04/14 11:10:29;;;;;;;3.15;2.30;;;12.30;99.90;;;;;;4955934;28;20145;-65
2023/04/14 11:13:04;;;;;;;6.38;2.28;;;12.40;99.90;;;;;;4970678;28;20054;-66
2023/04/14 11:15:44;;;;;;;3.47;2.83;;;12.40;99.90;;;;;;4966996;28;20468;-66
2023/04/14 11:18:34;;;;;;;10.55;7.25;;;12.40;99.90;;;;;;4966238;28;20049;-66
2023/04/14 11:21:13;;;;;;;7.07;4.10;;;12.40;99.90;;;;;;4967062;28;20034;-66
2023/04/14 11:23:40;;;;;;;4.07;3.15;;;12.40;99.90;;;;;;4969182;28;20031;-66
2023/04/14 11:26:07;;;;;;;5.82;3.08;;;12.40;99.90;;;;;;4978571;28;20066;-66
2023/04/14 11:28:35;;;;;;;6.82;4.47;;;12.40;99.90;;;;;;4954558;28;20047;-65
2023/04/14 11:31:04;;;;;;;9.00;5.53;;;12.40;99.90;;;;;;4973824;28;20327;-65
2023/04/14 11:33:40;;;;;;;6.85;4.00;;;12.40;99.90;;;;;;4979585;28;20534;-66
2023/04/14 11:36:08;;;;;;;8.55;4.80;;;12.40;99.90;;;;;;4969429;28;20042;-66
2023/04/14 11:38:39;;;;;;;8.82;5.97;;;12.40;99.90;;;;;;4972963;28;20035;-66
2023/04/14 11:41:05;;;;;;;5.93;3.88;;;12.40;99.90;;;;;;4969214;28;20070;-66
2023/04/14 11:43:31;;;;;;;9.43;4.80;;;12.50;99.90;;;;;;4972672;28;20402;-66
2023/04/14 11:45:59;;;;;;;7.85;4.95;;;12.40;99.90;;;;;;4974106;28;20100;-66
2023/04/14 11:48:27;;;;;;;5.07;3.88;;;12.40;99.90;;;;;;4968683;28;20233;-66
2023/04/14 11:50:54;;;;;;;3.70;3.30;;;12.40;99.90;;;;;;4959853;28;20113;-65
2023/04/14 11:53:21;;;;;;;4.60;2.72;;;12.40;99.90;;;;;;4972746;28;20145;-66
2023/04/14 11:55:51;;;;;;;5.72;3.42;;;12.40;99.90;;;;;;4973519;28;20039;-66
2023/04/14 11:58:25;;;;;;;3.25;2.28;;;12.40;99.90;;;;;;4974632;28;20442;-66
2023/04/14 12:00:52;;;;;;;5.53;2.40;;;12.40;99.90;;;;;;4969829;28;20036;-66
2023/04/14 12:03:20;;;;;;;2.63;2.20;;;12.30;99.90;;;;;;4972899;28;20034;-66
2023/04/14 12:05:47;;;;;;;2.47;2.15;;;12.30;99.90;;;;;;4973466;28;20121;-65
2023/04/14 12:08:13;;;;;;;2.88;2.10;;;12.20;99.90;;;;;;4974339;28;20495;-66
2023/04/14 12:10:40;;;;;;;3.50;2.08;;;12.10;99.90;;;;;;4976293;28;20098;-66
2023/04/14 12:13:10;;;;;;;3.60;2.20;;;12.10;99.90;;;;;;4968877;28;20140;-66
2023/04/14 12:15:40;;;;;;;2.15;1.92;;;12.00;99.90;;;;;;4972330;28;20045;-65
2023/04/14 12:18:14;;;;;;;4.25;2.00;;;12.00;99.90;;;;;;4960137;28;20049;-71
2023/04/14 12:20:53;;;;;;;3.67;1.65;;;12.00;99.90;;;;;;4977618;28;20094;-66
2023/04/14 12:23:20;;;;;;;2.50;1.73;;;12.00;99.90;;;;;;4970201;28;20042;-65
2023/04/14 12:25:48;;;;;;;2.10;1.83;;;12.00;99.90;;;;;;4977745;28;20379;-66
2023/04/14 12:28:26;;;;;;;3.83;2.33;;;11.90;99.90;;;;;;4973570;28;20045;-66
2023/04/14 12:30:55;;;;;;;2.70;2.00;;;11.90;99.90;;;;;;4975318;28;20031;-64
2023/04/14 12:33:22;;;;;;;2.90;1.80;;;11.90;99.90;;;;;;4974309;28;20041;-65
2023/04/14 12:35:52;;;;;;;3.50;1.65;;;11.90;99.90;;;;;;4973982;28;20066;-65
2023/04/14 12:38:18;;;;;;;4.25;1.80;;;11.80;99.90;;;;;;4973789;28;20108;-65
2023/04/14 12:40:46;;;;;;;3.38;2.17;;;11.80;99.90;;;;;;4975182;28;20113;-65
2023/04/14 12:43:14;;;;;;;5.82;2.75;;;11.80;99.90;;;;;;4971665;28;20058;-66
2023/04/14 12:45:44;;;;;;;3.72;2.10;;;11.80;99.90;;;;;;4972909;28;20038;-66
2023/04/14 12:48:16;;;;;;;3.92;2.25;;;11.80;99.90;;;;;;4971924;28;20041;-64
2023/04/14 12:50:43;;;;;;;5.00;2.10;;;11.80;99.90;;;;;;4973765;28;20118;-65
2023/04/14 12:53:28;;;;;;;3.08;2.13;;;11.80;99.90;;;;;;4974982;28;20030;-65
2023/04/14 12:56:12;;;;;;;2.70;2.20;;;11.70;99.90;;;;;;4971130;28;20050;-66
2023/04/14 12:58:39;;;;;;;3.38;2.00;;;11.80;99.90;;;;;;4977292;28;20149;-65